Time;durP1;ratioP1;P1;durP2;ratioP2;P2;SDS_P1;SDS_P2;PMS_P1;PMS_P2;Temp;Humidity;BMP_temperature;BMP_pressure;BME280_temperature;BME280_humidity;BME280_pressure;Samples;Min_cycle;Max_cycle;Signal;HPM_P1;HPM_P2
2023/06/27 00:01:51;;;;;;;6.75;4.05;;;;;;;;;;5035675;28;20037;-77
2023/06/27 00:04:19;;;;;;;5.60;3.60;;;;;;;;;;5035855;28;20046;-76
2023/06/27 00:06:45;;;;;;;6.45;3.95;;;;;;;;;;5035346;28;20415;-76
2023/06/27 00:09:11;;;;;;;6.82;3.90;;;;;;;;;;5035034;28;20517;-76
2023/06/27 00:11:40;;;;;;;6.05;3.78;;;;;;;;;;5035346;28;20053;-76
2023/06/27 00:14:09;;;;;;;5.57;3.20;;;;;;;;;;5035783;28;20084;-76
2023/06/27 00:16:35;;;;;;;7.47;3.47;;;;;;;;;;5034898;28;20651;-76
2023/06/27 00:19:02;;;;;;;5.70;3.38;;;;;;;;;;5035451;28;20045;-76
2023/06/27 00:21:28;;;;;;;6.45;3.30;;;;;;;;;;5035421;28;20049;-76
2023/06/27 00:23:56;;;;;;;5.93;3.28;;;;;;;;;;5034568;28;20514;-76
2023/06/27 00:26:22;;;;;;;5.63;3.55;;;;;;;;;;5035010;28;20409;-76
2023/06/27 00:28:48;;;;;;;6.53;3.25;;;;;;;;;;5035720;28;20037;-76
2023/06/27 00:31:14;;;;;;;5.13;3.47;;;;;;;;;;5034850;28;20037;-76
2023/06/27 00:33:40;;;;;;;8.88;3.50;;;;;;;;;;5035068;28;20042;-76
2023/06/27 00:36:06;;;;;;;6.32;3.50;;;;;;;;;;5035178;28;20045;-77
2023/06/27 00:38:33;;;;;;;5.90;3.50;;;;;;;;;;5035129;28;20045;-77
2023/06/27 00:40:59;;;;;;;5.57;3.40;;;;;;;;;;5034974;28;20057;-76
2023/06/27 00:43:28;;;;;;;5.75;3.50;;;;;;;;;;5035078;28;20475;-76
2023/06/27 00:45:54;;;;;;;6.45;3.63;;;;;;;;;;5033377;28;20419;-76
2023/06/27 00:48:21;;;;;;;6.45;3.78;;;;;;;;;;5034763;28;20041;-76
2023/06/27 00:50:47;;;;;;;6.78;3.42;;;;;;;;;;5034798;28;20088;-77
2023/06/27 00:53:14;;;;;;;4.40;3.35;;;;;;;;;;5034776;28;20051;-76
2023/06/27 00:55:41;;;;;;;5.65;3.35;;;;;;;;;;5033612;28;20041;-77
2023/06/27 00:58:10;;;;;;;4.80;3.53;;;;;;;;;;5035012;28;20057;-77
2023/06/27 01:00:37;;;;;;;6.03;3.45;;;;;;;;;;5034777;28;20037;-76
2023/06/27 01:03:03;;;;;;;5.65;3.40;;;;;;;;;;5034488;28;20095;-76
2023/06/27 01:05:29;;;;;;;5.13;3.40;;;;;;;;;;5034538;28;20128;-76
2023/06/27 01:07:58;;;;;;;5.53;3.20;;;;;;;;;;5034418;28;20042;-76
2023/06/27 01:10:39;;;;;;;6.82;3.10;;;;;;;;;;5034179;28;20124;-76
2023/06/27 01:13:07;;;;;;;6.03;3.42;;;;;;;;;;5034281;28;20582;-76
2023/06/27 01:15:34;;;;;;;6.75;3.40;;;;;;;;;;5033649;28;20053;-76
2023/06/27 01:18:00;;;;;;;5.72;3.05;;;;;;;;;;5033863;28;20372;-76
2023/06/27 01:20:27;;;;;;;4.85;3.00;;;;;;;;;;5033982;28;20045;-76
2023/06/27 01:23:05;;;;;;;6.25;3.20;;;;;;;;;;5034494;28;20037;-76
2023/06/27 01:25:31;;;;;;;6.53;3.38;;;;;;;;;;5033655;28;20120;-76
2023/06/27 01:27:57;;;;;;;5.80;3.30;;;;;;;;;;5033933;28;20045;-77
2023/06/27 01:30:24;;;;;;;4.75;3.42;;;;;;;;;;5033776;28;20099;-76
2023/06/27 01:32:54;;;;;;;5.57;3.80;;;;;;;;;;5033683;28;20060;-76
2023/06/27 01:35:20;;;;;;;5.43;3.88;;;;;;;;;;5034094;28;20045;-76
2023/06/27 01:37:50;;;;;;;5.05;3.55;;;;;;;;;;5032729;28;20110;-76
2023/06/27 01:40:18;;;;;;;6.60;3.30;;;;;;;;;;5033552;28;20353;-76
2023/06/27 01:42:45;;;;;;;8.02;3.88;;;;;;;;;;5033851;28;20041;-76
2023/06/27 01:45:12;;;;;;;5.50;3.17;;;;;;;;;;5033666;28;20079;-77
2023/06/27 01:47:40;;;;;;;5.20;3.35;;;;;;;;;;5033848;28;20045;-77
2023/06/27 01:50:06;;;;;;;6.18;3.40;;;;;;;;;;5033651;28;20129;-77
2023/06/27 01:52:33;;;;;;;7.53;3.40;;;;;;;;;;5033468;28;20356;-77
2023/06/27 01:54:59;;;;;;;7.40;3.30;;;;;;;;;;5029004;28;20045;-77
2023/06/27 01:57:26;;;;;;;5.93;3.20;;;;;;;;;;5014082;28;20125;-77
2023/06/27 01:59:52;;;;;;;5.95;3.22;;;;;;;;;;5017205;28;20050;-77
2023/06/27 02:02:18;;;;;;;4.80;3.10;;;;;;;;;;5018482;28;20129;-77
2023/06/27 02:04:44;;;;;;;3.95;3.15;;;;;;;;;;5018984;28;20049;-77
2023/06/27 02:07:11;;;;;;;6.20;3.47;;;;;;;;;;5014370;28;20042;-77
2023/06/27 02:09:37;;;;;;;4.53;2.92;;;;;;;;;;5012709;28;20046;-77
2023/06/27 02:12:04;;;;;;;6.60;3.00;;;;;;;;;;5012474;28;20050;-77
2023/06/27 02:14:30;;;;;;;7.88;3.30;;;;;;;;;;5013773;28;20077;-77
2023/06/27 02:16:56;;;;;;;5.10;2.67;;;;;;;;;;5012128;28;20049;-76
2023/06/27 02:19:23;;;;;;;7.63;3.10;;;;;;;;;;5013376;28;20042;-76
2023/06/27 02:21:49;;;;;;;6.35;2.95;;;;;;;;;;5013487;28;20042;-76
2023/06/27 02:24:16;;;;;;;6.65;3.38;;;;;;;;;;5012967;28;20075;-76
2023/06/27 02:26:43;;;;;;;6.00;3.00;;;;;;;;;;5013299;28;20046;-76
2023/06/27 02:29:09;;;;;;;5.97;3.20;;;;;;;;;;5013472;28;20427;-76
2023/06/27 02:31:35;;;;;;;4.63;2.92;;;;;;;;;;5013128;28;20075;-76
2023/06/27 02:34:01;;;;;;;6.07;3.00;;;;;;;;;;5013721;28;20128;-77
2023/06/27 02:36:27;;;;;;;7.28;3.55;;;;;;;;;;5012847;28;20522;-77
2023/06/27 02:38:58;;;;;;;9.23;3.20;;;;;;;;;;5012429;28;20341;-77
2023/06/27 02:41:24;;;;;;;5.82;3.25;;;;;;;;;;5013242;28;20072;-77
2023/06/27 02:43:51;;;;;;;7.55;3.80;;;;;;;;;;5013531;28;20452;-76
2023/06/27 02:46:17;;;;;;;7.15;3.35;;;;;;;;;;5013251;28;20124;-76
2023/06/27 02:48:44;;;;;;;6.40;3.50;;;;;;;;;;5013293;28;20096;-78
2023/06/27 02:51:10;;;;;;;6.88;3.55;;;;;;;;;;5012980;28;20125;-76
2023/06/27 02:53:36;;;;;;;7.78;3.40;;;;;;;;;;5013275;28;20046;-77
2023/06/27 02:56:03;;;;;;;5.53;3.30;;;;;;;;;;5025916;28;20045;-77
2023/06/27 02:58:30;;;;;;;6.82;3.53;;;;;;;;;;5033320;28;20049;-77
2023/06/27 03:00:56;;;;;;;6.25;3.80;;;;;;;;;;5032407;28;20111;-77
2023/06/27 03:03:22;;;;;;;7.00;3.78;;;;;;;;;;5033035;28;20046;-77
2023/06/27 03:05:48;;;;;;;6.80;3.78;;;;;;;;;;5032398;28;20048;-77
2023/06/27 03:08:14;;;;;;;7.88;3.72;;;;;;;;;;5033145;28;20041;-77
2023/06/27 03:10:40;;;;;;;7.18;3.83;;;;;;;;;;5032624;28;20403;-77
2023/06/27 03:13:06;;;;;;;9.23;3.55;;;;;;;;;;5033109;28;20124;-78
2023/06/27 03:15:32;;;;;;;8.98;3.42;;;;;;;;;;5032934;28;20120;-78
2023/06/27 03:17:58;;;;;;;7.95;3.60;;;;;;;;;;5033755;28;20049;-77
2023/06/27 03:20:24;;;;;;;7.85;3.25;;;;;;;;;;5035417;28;20049;-78
2023/06/27 03:22:50;;;;;;;11.98;3.67;;;;;;;;;;5036303;28;20104;-78
2023/06/27 03:25:16;;;;;;;6.18;3.10;;;;;;;;;;5036041;28;20054;-77
2023/06/27 03:27:42;;;;;;;6.45;3.03;;;;;;;;;;5035346;28;20053;-77
2023/06/27 03:30:09;;;;;;;8.25;3.72;;;;;;;;;;5036257;28;20045;-78
2023/06/27 03:32:35;;;;;;;5.15;3.15;;;;;;;;;;5035807;28;20125;-77
2023/06/27 03:35:01;;;;;;;7.85;3.00;;;;;;;;;;5036584;28;20049;-77
2023/06/27 03:37:27;;;;;;;6.35;3.00;;;;;;;;;;5035987;28;20048;-77
2023/06/27 03:39:55;;;;;;;5.20;2.80;;;;;;;;;;5036652;28;20041;-77
2023/06/27 03:42:22;;;;;;;8.25;3.50;;;;;;;;;;5036087;28;20111;-77
2023/06/27 03:44:48;;;;;;;11.02;3.30;;;;;;;;;;5036497;28;20052;-77
2023/06/27 03:47:14;;;;;;;6.97;3.35;;;;;;;;;;5035865;28;20045;-77
2023/06/27 03:49:40;;;;;;;6.78;3.00;;;;;;;;;;5036414;28;20059;-77
2023/06/27 03:52:06;;;;;;;5.47;3.00;;;;;;;;;;5035843;28;20521;-77
2023/06/27 03:54:32;;;;;;;8.13;3.20;;;;;;;;;;5035768;28;20100;-77
2023/06/27 03:56:59;;;;;;;5.68;2.83;;;;;;;;;;5035511;28;20092;-76
2023/06/27 03:59:25;;;;;;;7.32;3.10;;;;;;;;;;5036133;28;20057;-76
2023/06/27 04:01:51;;;;;;;5.10;3.30;;;;;;;;;;5035189;28;20050;-76
2023/06/27 04:04:17;;;;;;;5.68;3.13;;;;;;;;;;5035308;28;20045;-76
2023/06/27 04:06:43;;;;;;;5.32;2.92;;;;;;;;;;5035436;28;20041;-76
2023/06/27 04:09:09;;;;;;;5.82;3.22;;;;;;;;;;5035514;28;20099;-76
2023/06/27 04:11:35;;;;;;;5.50;3.00;;;;;;;;;;5034012;28;20046;-76
2023/06/27 04:14:02;;;;;;;8.10;3.58;;;;;;;;;;5034089;28;20064;-76
2023/06/27 04:16:28;;;;;;;7.50;2.88;;;;;;;;;;5035129;28;20056;-76
2023/06/27 04:18:54;;;;;;;6.72;2.90;;;;;;;;;;5035317;28;20135;-76
2023/06/27 04:21:22;;;;;;;6.63;2.70;;;;;;;;;;5034919;28;20049;-76
2023/06/27 04:23:48;;;;;;;7.78;2.83;;;;;;;;;;5035195;28;20061;-76
2023/06/27 04:26:17;;;;;;;6.35;2.95;;;;;;;;;;5035068;28;20056;-76
2023/06/27 04:28:43;;;;;;;4.68;2.70;;;;;;;;;;5034521;28;20091;-76
2023/06/27 04:31:10;;;;;;;6.43;3.00;;;;;;;;;;5034357;28;20045;-76
2023/06/27 04:33:42;;;;;;;7.72;3.00;;;;;;;;;;5035329;28;20077;-76
2023/06/27 04:36:08;;;;;;;7.95;2.83;;;;;;;;;;5034869;28;20060;-76
2023/06/27 04:38:37;;;;;;;6.85;3.08;;;;;;;;;;5034338;28;20447;-76
2023/06/27 04:41:04;;;;;;;13.80;3.17;;;;;;;;;;5034761;28;20100;-76
2023/06/27 04:43:32;;;;;;;5.60;2.70;;;;;;;;;;5034324;28;20067;-76
2023/06/27 04:45:58;;;;;;;3.50;2.45;;;;;;;;;;5034819;28;20480;-76
2023/06/27 04:48:24;;;;;;;7.55;2.88;;;;;;;;;;5035299;28;20052;-76
2023/06/27 04:50:51;;;;;;;6.45;2.92;;;;;;;;;;5034252;28;20053;-76
2023/06/27 04:53:20;;;;;;;7.82;2.80;;;;;;;;;;5034944;28;20413;-76
2023/06/27 04:55:47;;;;;;;6.88;2.80;;;;;;;;;;5034739;28;20052;-76
2023/06/27 04:58:13;;;;;;;9.07;3.13;;;;;;;;;;5034540;28;20107;-76
2023/06/27 05:00:39;;;;;;;6.60;2.92;;;;;;;;;;5034193;28;20098;-76
2023/06/27 05:03:05;;;;;;;6.78;2.60;;;;;;;;;;5034513;28;20049;-76
2023/06/27 05:05:32;;;;;;;6.95;2.80;;;;;;;;;;5034462;28;20053;-77
2023/06/27 05:07:59;;;;;;;6.82;2.58;;;;;;;;;;5033916;28;20441;-78
2023/06/27 05:10:25;;;;;;;5.85;2.80;;;;;;;;;;5034140;28;20047;-77
2023/06/27 05:12:51;;;;;;;6.88;2.75;;;;;;;;;;5034219;28;20077;-76
2023/06/27 05:15:17;;;;;;;7.63;2.40;;;;;;;;;;5034486;28;20049;-76
2023/06/27 05:17:49;;;;;;;8.60;2.35;;;;;;;;;;5034155;28;20049;-76
2023/06/27 05:20:16;;;;;;;4.78;2.28;;;;;;;;;;5034207;28;20084;-76
2023/06/27 05:22:42;;;;;;;11.82;2.22;;;;;;;;;;5034054;28;20384;-76
2023/06/27 05:25:08;;;;;;;6.13;2.35;;;;;;;;;;5033998;28;20487;-77
2023/06/27 05:27:34;;;;;;;6.68;2.53;;;;;;;;;;5034316;28;20049;-76
2023/06/27 05:30:00;;;;;;;4.25;2.20;;;;;;;;;;5033873;28;20049;-77
2023/06/27 05:32:26;;;;;;;7.78;2.20;;;;;;;;;;5033694;28;20042;-77
2023/06/27 05:34:52;;;;;;;7.78;2.53;;;;;;;;;;5033699;28;20434;-76
2023/06/27 05:37:18;;;;;;;7.45;2.50;;;;;;;;;;5034071;28;20489;-78
2023/06/27 05:39:44;;;;;;;6.53;2.22;;;;;;;;;;5033593;28;20468;-77
2023/06/27 05:42:10;;;;;;;5.07;2.45;;;;;;;;;;5032721;28;20435;-77
2023/06/27 05:44:36;;;;;;;5.97;2.35;;;;;;;;;;5034315;28;20045;-77
2023/06/27 05:47:03;;;;;;;6.47;2.35;;;;;;;;;;5034506;28;20103;-77
2023/06/27 05:49:29;;;;;;;7.65;2.60;;;;;;;;;;5036077;28;20052;-77
2023/06/27 05:51:55;;;;;;;5.32;2.90;;;;;;;;;;5037463;28;20128;-76
2023/06/27 05:54:21;;;;;;;5.65;2.03;;;;;;;;;;5036929;28;20045;-77
2023/06/27 05:56:47;;;;;;;6.47;2.53;;;;;;;;;;5033833;28;20111;-77
2023/06/27 05:59:13;;;;;;;6.57;2.42;;;;;;;;;;5033777;28;20052;-76
2023/06/27 06:01:40;;;;;;;7.15;2.55;;;;;;;;;;5033733;28;20052;-76
2023/06/27 06:04:06;;;;;;;5.20;2.55;;;;;;;;;;5032263;28;20057;-78
2023/06/27 06:06:38;;;;;;;5.50;2.47;;;;;;;;;;5031715;28;20045;-78
2023/06/27 06:09:07;;;;;;;4.97;2.20;;;;;;;;;;5033641;28;20049;-77
2023/06/27 06:11:34;;;;;;;4.28;2.00;;;;;;;;;;5033340;28;20041;-77
2023/06/27 06:14:03;;;;;;;7.25;2.40;;;;;;;;;;5033413;28;20085;-77
2023/06/27 06:16:33;;;;;;;5.53;2.55;;;;;;;;;;5032763;28;20569;-77
2023/06/27 06:19:03;;;;;;;12.50;2.80;;;;;;;;;;5033709;28;20037;-77
2023/06/27 06:21:29;;;;;;;6.70;2.45;;;;;;;;;;5032977;28;20041;-77
2023/06/27 06:23:55;;;;;;;6.72;2.58;;;;;;;;;;5033038;28;20053;-77
2023/06/27 06:26:21;;;;;;;6.32;2.33;;;;;;;;;;5032781;28;20132;-76
2023/06/27 06:28:47;;;;;;;4.50;1.98;;;;;;;;;;5032909;28;20373;-77
2023/06/27 06:31:18;;;;;;;5.30;2.20;;;;;;;;;;5032645;28;20042;-78
2023/06/27 06:33:44;;;;;;;9.77;2.78;;;;;;;;;;5031958;28;20049;-78
2023/06/27 06:36:11;;;;;;;6.88;2.75;;;;;;;;;;5031884;28;20077;-78
2023/06/27 06:38:37;;;;;;;4.97;2.00;;;;;;;;;;5032858;28;20046;-78
2023/06/27 06:41:04;;;;;;;10.23;2.50;;;;;;;;;;5031424;28;20084;-77
2023/06/27 06:43:30;;;;;;;7.03;2.55;;;;;;;;;;5032856;28;20408;-77
2023/06/27 06:45:56;;;;;;;5.55;2.03;;;;;;;;;;5032798;28;20046;-77
2023/06/27 06:48:23;;;;;;;5.90;2.40;;;;;;;;;;5033220;28;20502;-77
2023/06/27 06:50:50;;;;;;;7.70;2.30;;;;;;;;;;5032628;28;20121;-77
2023/06/27 06:53:16;;;;;;;4.65;2.20;;;;;;;;;;5035823;28;20075;-77
2023/06/27 06:55:42;;;;;;;6.82;2.40;;;;;;;;;;5036661;28;20037;-77
2023/06/27 06:58:08;;;;;;;5.05;1.92;;;;;;;;;;5036589;28;20049;-77
2023/06/27 07:00:35;;;;;;;5.78;2.08;;;;;;;;;;5036663;28;20053;-77
2023/06/27 07:03:01;;;;;;;7.18;2.10;;;;;;;;;;5036883;28;20124;-77
2023/06/27 07:05:27;;;;;;;5.18;2.20;;;;;;;;;;5036336;28;20045;-77
2023/06/27 07:07:53;;;;;;;6.53;2.00;;;;;;;;;;5036384;28;20050;-77
2023/06/27 07:10:19;;;;;;;8.40;2.42;;;;;;;;;;5036391;28;20136;-77
2023/06/27 07:12:45;;;;;;;7.70;2.10;;;;;;;;;;5036901;28;20042;-77
2023/06/27 07:15:11;;;;;;;6.20;2.47;;;;;;;;;;5036163;28;20590;-77
2023/06/27 07:17:37;;;;;;;9.38;2.25;;;;;;;;;;5036563;28;20473;-77
2023/06/27 07:20:04;;;;;;;6.85;2.20;;;;;;;;;;5036361;28;20133;-77
2023/06/27 07:22:30;;;;;;;5.93;1.90;;;;;;;;;;5034620;28;20060;-77
2023/06/27 07:24:56;;;;;;;5.85;2.08;;;;;;;;;;5035767;28;20057;-77
2023/06/27 07:27:22;;;;;;;6.65;2.35;;;;;;;;;;5036215;28;20050;-78
2023/06/27 07:29:48;;;;;;;7.75;2.72;;;;;;;;;;5036111;28;20050;-78
2023/06/27 07:32:14;;;;;;;6.53;1.85;;;;;;;;;;5035968;28;20056;-77
2023/06/27 07:34:40;;;;;;;4.40;2.28;;;;;;;;;;5035299;28;20104;-77
2023/06/27 07:37:07;;;;;;;6.55;2.30;;;;;;;;;;5035859;28;20123;-78
2023/06/27 07:39:33;;;;;;;8.18;1.90;;;;;;;;;;5036214;28;20052;-77
2023/06/27 07:41:59;;;;;;;5.30;2.45;;;;;;;;;;5035524;28;20041;-77
2023/06/27 07:44:25;;;;;;;5.63;1.92;;;;;;;;;;5036304;28;20041;-77
2023/06/27 07:46:52;;;;;;;5.55;2.10;;;;;;;;;;5035723;28;20048;-77
2023/06/27 07:49:18;;;;;;;6.25;2.10;;;;;;;;;;5035900;28;20395;-78
2023/06/27 07:51:49;;;;;;;4.07;1.77;;;;;;;;;;5035582;28;20046;-77
2023/06/27 07:54:15;;;;;;;4.57;2.00;;;;;;;;;;5035465;28;20383;-77
2023/06/27 07:56:41;;;;;;;7.60;2.20;;;;;;;;;;5035764;28;20049;-77
2023/06/27 07:59:08;;;;;;;4.93;1.80;;;;;;;;;;5035727;28;20045;-77
2023/06/27 08:01:35;;;;;;;4.45;1.88;;;;;;;;;;5035558;28;20056;-77
2023/06/27 08:04:01;;;;;;;5.93;2.00;;;;;;;;;;5034948;28;20058;-77
2023/06/27 08:06:28;;;;;;;3.42;1.80;;;;;;;;;;5035789;28;20475;-77
2023/06/27 08:08:54;;;;;;;5.22;1.80;;;;;;;;;;5035468;28;20087;-77
2023/06/27 08:11:21;;;;;;;5.05;1.90;;;;;;;;;;5035198;28;20038;-77
2023/06/27 08:13:47;;;;;;;2.75;1.88;;;;;;;;;;5035244;28;20061;-77
2023/06/27 08:16:13;;;;;;;6.00;2.17;;;;;;;;;;5035097;28;20056;-77
2023/06/27 08:18:39;;;;;;;3.45;1.80;;;;;;;;;;5035874;28;20041;-77
2023/06/27 08:21:05;;;;;;;4.85;2.05;;;;;;;;;;5034954;28;20460;-77
2023/06/27 08:23:31;;;;;;;5.57;2.55;;;;;;;;;;5033783;28;20400;-79
2023/06/27 08:25:57;;;;;;;6.15;1.85;;;;;;;;;;5033630;28;20502;-78
2023/06/27 08:28:23;;;;;;;3.50;1.73;;;;;;;;;;5035153;28;20129;-78
2023/06/27 08:30:49;;;;;;;3.88;1.90;;;;;;;;;;5035180;28;20479;-78
2023/06/27 08:33:15;;;;;;;5.30;1.80;;;;;;;;;;5034773;28;20506;-78
2023/06/27 08:35:43;;;;;;;4.93;2.10;;;;;;;;;;5034467;28;20439;-78
2023/06/27 08:38:10;;;;;;;6.15;1.98;;;;;;;;;;5035500;28;20120;-78
2023/06/27 08:40:37;;;;;;;5.22;1.98;;;;;;;;;;5034597;28;20045;-78
2023/06/27 08:43:04;;;;;;;4.22;1.65;;;;;;;;;;5034630;28;20052;-78
2023/06/27 08:45:31;;;;;;;4.43;1.85;;;;;;;;;;5034718;28;20045;-78
2023/06/27 08:47:58;;;;;;;5.90;2.00;;;;;;;;;;5034371;28;20514;-78
2023/06/27 08:50:26;;;;;;;7.40;2.50;;;;;;;;;;5034455;28;20037;-77
2023/06/27 08:52:55;;;;;;;3.88;1.98;;;;;;;;;;5035158;28;20049;-77
2023/06/27 08:55:46;;;;;;;6.28;2.13;;;;;;;;;;5034245;28;20064;-77
2023/06/27 08:58:14;;;;;;;6.10;1.60;;;;;;;;;;5034580;28;20549;-77
2023/06/27 09:00:40;;;;;;;11.60;2.45;;;;;;;;;;5034409;28;20045;-77
2023/06/27 09:03:06;;;;;;;6.40;2.20;;;;;;;;;;5033286;28;20042;-77
2023/06/27 09:05:34;;;;;;;5.40;2.00;;;;;;;;;;5034305;28;20124;-77
2023/06/27 09:08:00;;;;;;;4.57;2.15;;;;;;;;;;5034394;28;20045;-77
2023/06/27 09:10:26;;;;;;;3.60;2.03;;;;;;;;;;5034191;28;20049;-77
2023/06/27 09:12:56;;;;;;;6.13;1.80;;;;;;;;;;5034620;28;20124;-77
2023/06/27 09:15:23;;;;;;;5.57;1.98;;;;;;;;;;5026486;28;20045;-77
2023/06/27 09:17:49;;;;;;;8.18;1.70;;;;;;;;;;5014262;28;20124;-77
2023/06/27 09:20:16;;;;;;;7.72;2.08;;;;;;;;;;5014927;28;20168;-77
2023/06/27 09:22:43;;;;;;;5.80;2.13;;;;;;;;;;5014434;28;20053;-77
2023/06/27 09:25:16;;;;;;;5.63;2.00;;;;;;;;;;5013745;28;20054;-77
2023/06/27 09:27:43;;;;;;;3.88;1.80;;;;;;;;;;5013999;28;20053;-77
2023/06/27 09:30:10;;;;;;;5.82;2.00;;;;;;;;;;5014164;28;20054;-77
2023/06/27 09:32:54;;;;;;;6.57;2.20;;;;;;;;;;5014423;28;20080;-77
2023/06/27 09:35:21;;;;;;;5.35;2.28;;;;;;;;;;5014302;28;20519;-77
2023/06/27 09:37:47;;;;;;;7.50;3.10;;;;;;;;;;5018012;28;20042;-77
2023/06/27 09:40:18;;;;;;;6.13;2.55;;;;;;;;;;5019448;28;20368;-77
2023/06/27 09:42:51;;;;;;;4.35;2.20;;;;;;;;;;5018839;28;20117;-77
2023/06/27 09:45:17;;;;;;;8.63;2.35;;;;;;;;;;5015227;28;20046;-77
2023/06/27 09:47:44;;;;;;;8.40;2.08;;;;;;;;;;5012556;28;20050;-77
2023/06/27 09:50:10;;;;;;;4.90;1.88;;;;;;;;;;5013736;28;20481;-77
2023/06/27 09:52:36;;;;;;;4.22;1.90;;;;;;;;;;5014137;28;20141;-77
2023/06/27 09:55:02;;;;;;;6.10;2.00;;;;;;;;;;5018796;28;20091;-77
2023/06/27 09:57:30;;;;;;;4.10;1.63;;;;;;;;;;5033178;28;20063;-77
2023/06/27 10:00:00;;;;;;;6.30;2.15;;;;;;;;;;5033577;28;20524;-77
2023/06/27 10:02:29;;;;;;;4.78;2.10;;;;;;;;;;5033079;28;20060;-77
2023/06/27 10:04:55;;;;;;;6.53;2.30;;;;;;;;;;5033444;28;20120;-77
2023/06/27 10:07:22;;;;;;;5.47;2.08;;;;;;;;;;5033033;28;20052;-77
2023/06/27 10:09:48;;;;;;;8.98;2.30;;;;;;;;;;5033179;28;20049;-78
2023/06/27 10:12:15;;;;;;;8.02;2.53;;;;;;;;;;5033497;28;20083;-77
2023/06/27 10:14:43;;;;;;;8.38;2.20;;;;;;;;;;5033243;28;20049;-77
2023/06/27 10:17:18;;;;;;;7.30;2.00;;;;;;;;;;5032957;28;20462;-77
2023/06/27 10:19:44;;;;;;;6.18;2.45;;;;;;;;;;5033187;28;20056;-77
2023/06/27 10:22:12;;;;;;;7.25;2.13;;;;;;;;;;5033424;28;20065;-77
2023/06/27 10:24:42;;;;;;;7.88;2.13;;;;;;;;;;5032895;28;20061;-77
2023/06/27 10:27:09;;;;;;;6.47;2.03;;;;;;;;;;5032676;28;20388;-77
2023/06/27 10:29:40;;;;;;;5.82;2.22;;;;;;;;;;5033346;28;20120;-77
2023/06/27 10:32:08;;;;;;;4.28;1.90;;;;;;;;;;5033334;28;20049;-77
2023/06/27 10:34:44;;;;;;;6.40;2.30;;;;;;;;;;5033025;28;20053;-77
2023/06/27 10:37:30;;;;;;;4.57;2.00;;;;;;;;;;5033515;28;20460;-77
2023/06/27 10:39:57;;;;;;;8.30;2.45;;;;;;;;;;5033328;28;20045;-77
2023/06/27 10:42:23;;;;;;;7.38;2.50;;;;;;;;;;5033185;28;20445;-77
2023/06/27 10:45:01;;;;;;;3.88;1.85;;;;;;;;;;5033102;28;20067;-77
2023/06/27 10:47:29;;;;;;;8.20;1.98;;;;;;;;;;5033280;28;20543;-77
2023/06/27 10:50:01;;;;;;;6.65;2.40;;;;;;;;;;5032544;28;20041;-77
2023/06/27 10:52:27;;;;;;;5.55;2.22;;;;;;;;;;5032961;28;20124;-77
2023/06/27 10:55:12;;;;;;;12.05;2.72;;;;;;;;;;5032944;28;20480;-77
2023/06/27 10:57:41;;;;;;;8.45;2.08;;;;;;;;;;5033037;28;20046;-78
2023/06/27 11:00:17;;;;;;;3.95;1.85;;;;;;;;;;5032970;28;20076;-77
2023/06/27 11:02:44;;;;;;;4.75;2.03;;;;;;;;;;5032712;28;20045;-78
2023/06/27 11:05:16;;;;;;;4.70;1.73;;;;;;;;;;5033193;28;20045;-77
2023/06/27 11:08:02;;;;;;;5.38;1.90;;;;;;;;;;5033110;28;20053;-78
2023/06/27 11:10:29;;;;;;;4.65;2.13;;;;;;;;;;5033175;28;20054;-77
2023/06/27 11:13:14;;;;;;;3.78;1.95;;;;;;;;;;5032558;28;20049;-77
2023/06/27 11:15:42;;;;;;;4.32;1.98;;;;;;;;;;5032749;28;20215;-77
2023/06/27 11:18:08;;;;;;;8.93;2.10;;;;;;;;;;5033024;28;20050;-77
2023/06/27 11:20:36;;;;;;;5.20;1.90;;;;;;;;;;5032213;28;20566;-77
2023/06/27 11:23:03;;;;;;;5.95;1.90;;;;;;;;;;5032879;28;20471;-78
2023/06/27 11:25:35;;;;;;;4.03;2.13;;;;;;;;;;5032610;28;20164;-78
2023/06/27 11:28:01;;;;;;;4.13;1.85;;;;;;;;;;5033013;28;20041;-77
2023/06/27 11:30:31;;;;;;;6.72;1.95;;;;;;;;;;5032602;28;20056;-78
2023/06/27 11:32:57;;;;;;;5.15;1.88;;;;;;;;;;5033050;28;20069;-77
2023/06/27 11:35:24;;;;;;;3.85;1.75;;;;;;;;;;5032937;28;20041;-77
2023/06/27 11:37:56;;;;;;;5.75;1.77;;;;;;;;;;5032677;28;20099;-77
2023/06/27 11:40:26;;;;;;;3.42;1.70;;;;;;;;;;5017849;28;20116;-77
2023/06/27 11:43:02;;;;;;;3.45;1.55;;;;;;;;;;5036107;28;20041;-77
2023/06/27 11:45:29;;;;;;;4.72;1.83;;;;;;;;;;5036313;28;20080;-77
2023/06/27 11:47:55;;;;;;;3.33;1.70;;;;;;;;;;5036341;28;20048;-77
2023/06/27 11:50:22;;;;;;;6.78;2.20;;;;;;;;;;5035828;28;20071;-77
2023/06/27 11:52:49;;;;;;;4.65;1.90;;;;;;;;;;5036216;28;20059;-78
2023/06/27 11:55:15;;;;;;;7.03;1.90;;;;;;;;;;5029523;28;20116;-77
2023/06/27 11:57:42;;;;;;;4.68;2.42;;;;;;;;;;5016411;28;20550;-77
2023/06/27 12:00:29;;;;;;;5.97;2.00;;;;;;;;;;5017174;28;20496;-77
2023/06/27 12:02:56;;;;;;;5.18;1.85;;;;;;;;;;5016838;28;20096;-77
2023/06/27 12:05:24;;;;;;;6.32;1.80;;;;;;;;;;5015825;28;20049;-77
2023/06/27 12:08:03;;;;;;;4.35;2.10;;;;;;;;;;5016251;28;20093;-77
2023/06/27 12:10:30;;;;;;;8.00;1.98;;;;;;;;;;5015753;28;20120;-77
2023/06/27 12:12:56;;;;;;;5.60;2.08;;;;;;;;;;5015976;28;20046;-77
2023/06/27 12:15:23;;;;;;;4.40;2.00;;;;;;;;;;5015803;28;20046;-77
2023/06/27 12:18:02;;;;;;;5.50;2.10;;;;;;;;;;5015999;28;20120;-77
2023/06/27 12:20:41;;;;;;;4.03;1.70;;;;;;;;;;5016027;28;20117;-77
2023/06/27 12:23:08;;;;;;;6.88;2.35;;;;;;;;;;5015621;28;20042;-78
2023/06/27 12:25:34;;;;;;;4.50;2.20;;;;;;;;;;5014533;28;20060;-78
2023/06/27 12:28:01;;;;;;;5.78;2.05;;;;;;;;;;5015274;28;20046;-78
2023/06/27 12:30:28;;;;;;;7.25;2.65;;;;;;;;;;5015128;28;20042;-78
2023/06/27 12:32:54;;;;;;;6.75;2.03;;;;;;;;;;5015357;28;20071;-77
2023/06/27 12:35:20;;;;;;;7.03;2.42;;;;;;;;;;5014982;28;20223;-77
2023/06/27 12:37:46;;;;;;;8.73;2.35;;;;;;;;;;5015203;28;20495;-77
2023/06/27 12:40:13;;;;;;;3.40;1.85;;;;;;;;;;5014931;28;20488;-77
2023/06/27 12:42:39;;;;;;;6.63;2.17;;;;;;;;;;5015023;28;20046;-77
2023/06/27 12:45:05;;;;;;;7.25;2.30;;;;;;;;;;5015351;28;20045;-77
2023/06/27 12:47:31;;;;;;;4.32;2.30;;;;;;;;;;5014602;28;20054;-77
2023/06/27 12:49:58;;;;;;;7.05;1.98;;;;;;;;;;5014484;28;20116;-77
2023/06/27 12:52:24;;;;;;;9.38;2.38;;;;;;;;;;5015030;28;20088;-77
2023/06/27 12:54:50;;;;;;;6.65;2.10;;;;;;;;;;5018050;28;20152;-77
2023/06/27 12:57:16;;;;;;;6.47;2.22;;;;;;;;;;5034655;28;20041;-77
2023/06/27 12:59:42;;;;;;;11.70;2.92;;;;;;;;;;5034861;28;20103;-77
2023/06/27 13:02:09;;;;;;;7.95;2.55;;;;;;;;;;5034322;28;20092;-77
2023/06/27 13:04:35;;;;;;;4.22;2.00;;;;;;;;;;5034366;28;20085;-77
2023/06/27 13:07:01;;;;;;;7.07;2.67;;;;;;;;;;5034229;28;20064;-77
2023/06/27 13:09:27;;;;;;;4.70;2.55;;;;;;;;;;5034377;28;20041;-77
2023/06/27 13:11:56;;;;;;;7.03;2.03;;;;;;;;;;5033799;28;20495;-77
2023/06/27 13:14:23;;;;;;;10.50;2.88;;;;;;;;;;5034539;28;20053;-77
2023/06/27 13:16:50;;;;;;;10.73;2.58;;;;;;;;;;5033936;28;20053;-78
2023/06/27 13:19:16;;;;;;;8.15;2.92;;;;;;;;;;5034104;28;20567;-78
2023/06/27 13:21:44;;;;;;;4.47;2.00;;;;;;;;;;5034318;28;20102;-77
2023/06/27 13:24:11;;;;;;;6.97;2.10;;;;;;;;;;5032809;28;20053;-77
2023/06/27 13:26:38;;;;;;;5.22;1.95;;;;;;;;;;5032827;28;20072;-77
2023/06/27 13:29:05;;;;;;;8.63;2.10;;;;;;;;;;5034038;28;20092;-77
2023/06/27 13:31:31;;;;;;;7.88;2.42;;;;;;;;;;5033820;28;20383;-77
2023/06/27 13:33:57;;;;;;;6.93;2.53;;;;;;;;;;5034280;28;20120;-77
2023/06/27 13:36:23;;;;;;;6.22;2.35;;;;;;;;;;5036443;28;20156;-77
2023/06/27 13:38:50;;;;;;;11.65;2.58;;;;;;;;;;5039300;28;20052;-77
2023/06/27 13:41:16;;;;;;;7.40;2.35;;;;;;;;;;5038968;28;20050;-77
2023/06/27 13:43:42;;;;;;;6.32;2.40;;;;;;;;;;5037191;28;20053;-77
2023/06/27 13:46:08;;;;;;;7.72;2.08;;;;;;;;;;5034246;28;20041;-77
2023/06/27 13:48:34;;;;;;;6.05;2.38;;;;;;;;;;5033342;28;20500;-77
2023/06/27 13:51:00;;;;;;;4.28;1.88;;;;;;;;;;5033506;28;20488;-77
2023/06/27 13:53:26;;;;;;;4.88;2.03;;;;;;;;;;5032885;28;20084;-77
2023/06/27 13:55:52;;;;;;;8.18;2.20;;;;;;;;;;5033527;28;20073;-77
2023/06/27 13:58:19;;;;;;;4.45;2.53;;;;;;;;;;5033849;28;20049;-77
2023/06/27 14:00:49;;;;;;;4.38;2.22;;;;;;;;;;5033530;28;20041;-77
2023/06/27 14:03:16;;;;;;;4.38;1.90;;;;;;;;;;5033354;28;20376;-77
2023/06/27 14:05:43;;;;;;;6.45;2.28;;;;;;;;;;5033297;28;20053;-77
2023/06/27 14:08:09;;;;;;;5.88;2.30;;;;;;;;;;5034105;28;20143;-77
2023/06/27 14:10:35;;;;;;;5.35;2.30;;;;;;;;;;5033034;28;20045;-77
2023/06/27 14:13:02;;;;;;;7.20;2.38;;;;;;;;;;5033510;28;20050;-77
2023/06/27 14:15:29;;;;;;;4.38;2.45;;;;;;;;;;5033070;28;20454;-77
2023/06/27 14:17:55;;;;;;;5.18;2.00;;;;;;;;;;5032927;28;20077;-77
2023/06/27 14:20:22;;;;;;;7.20;2.50;;;;;;;;;;5033171;28;20045;-77
2023/06/27 14:22:48;;;;;;;5.65;2.28;;;;;;;;;;5033011;28;20045;-77
2023/06/27 14:25:14;;;;;;;3.67;1.92;;;;;;;;;;5032798;28;20081;-77
2023/06/27 14:27:40;;;;;;;4.95;2.00;;;;;;;;;;5033331;28;20126;-77
2023/06/27 14:30:07;;;;;;;6.80;2.58;;;;;;;;;;5033288;28;20091;-77
2023/06/27 14:32:33;;;;;;;10.00;2.45;;;;;;;;;;5032914;28;20396;-77
2023/06/27 14:34:59;;;;;;;4.07;1.80;;;;;;;;;;5033023;28;20055;-77
2023/06/27 14:37:25;;;;;;;3.65;2.03;;;;;;;;;;5033411;28;20041;-77
2023/06/27 14:39:54;;;;;;;5.93;2.20;;;;;;;;;;5032994;28;20455;-77
2023/06/27 14:42:20;;;;;;;3.70;1.95;;;;;;;;;;5033205;28;20538;-77
2023/06/27 14:44:46;;;;;;;4.25;1.98;;;;;;;;;;5033038;28;20404;-77